Time;durP1;ratioP1;P1;durP2;ratioP2;P2;SDS_P1;SDS_P2;PMS_P1;PMS_P2;Temp;Humidity;BMP_temperature;BMP_pressure;BME280_temperature;BME280_humidity;BME280_pressure;Samples;Min_cycle;Max_cycle;Signal;HPM_P1;HPM_P2
2022/08/18 00:01:10;;;;;;;12.47;11.47;;;20.80;99.90;;;;;;4867068;29;20642;-59
2022/08/18 00:03:41;;;;;;;12.47;11.27;;;20.80;99.90;;;;;;4881999;29;20327;-59
2022/08/18 00:06:29;;;;;;;12.80;11.60;;;20.80;99.90;;;;;;4863427;29;20234;-59
2022/08/18 00:09:01;;;;;;;12.27;11.13;;;20.80;99.90;;;;;;4863740;29;20299;-59
2022/08/18 00:11:31;;;;;;;12.27;11.07;;;20.80;99.90;;;;;;4863643;29;20317;-58
2022/08/18 00:14:12;;;;;;;12.37;11.27;;;20.80;99.90;;;;;;4865157;29;20242;-59
2022/08/18 00:16:52;;;;;;;13.33;12.10;;;20.90;99.90;;;;;;4863211;29;20320;-58
2022/08/18 00:19:21;;;;;;;14.03;12.87;;;20.80;99.90;;;;;;4860941;29;20227;-59
2022/08/18 00:22:10;;;;;;;15.40;14.00;;;20.90;99.90;;;;;;4863473;29;20233;-58
2022/08/18 00:24:44;;;;;;;14.40;13.20;;;20.90;99.90;;;;;;4863442;29;20231;-58
2022/08/18 00:27:20;;;;;;;13.63;12.33;;;20.90;99.90;;;;;;4859290;29;20234;-59
2022/08/18 00:29:49;;;;;;;14.47;13.20;;;20.90;99.90;;;;;;4860309;29;20237;-58
2022/08/18 00:32:19;;;;;;;15.37;14.07;;;20.80;99.90;;;;;;4862850;29;20321;-59
2022/08/18 00:34:47;;;;;;;16.20;14.90;;;20.80;99.90;;;;;;4863130;29;20569;-59
2022/08/18 00:37:15;;;;;;;16.87;15.37;;;20.90;99.90;;;;;;4863394;29;20912;-58
2022/08/18 00:39:44;;;;;;;18.10;16.33;;;20.90;99.90;;;;;;4863077;29;20325;-59
2022/08/18 00:42:17;;;;;;;16.53;15.07;;;20.80;99.90;;;;;;4863062;29;20245;-59
2022/08/18 00:44:58;;;;;;;19.50;17.70;;;20.80;99.90;;;;;;4860895;29;20226;-59
2022/08/18 00:47:28;;;;;;;17.60;16.10;;;20.80;99.90;;;;;;4863018;29;20717;-59
2022/08/18 00:50:15;;;;;;;15.83;14.30;;;20.80;99.90;;;;;;4862839;29;20226;-59
2022/08/18 00:52:52;;;;;;;17.50;15.90;;;20.80;99.90;;;;;;4862936;29;20235;-59
2022/08/18 00:55:23;;;;;;;17.53;15.73;;;20.80;99.90;;;;;;4862882;29;20234;-59
2022/08/18 00:58:00;;;;;;;16.63;15.20;;;20.80;99.90;;;;;;4862152;29;20234;-59
2022/08/18 01:00:28;;;;;;;17.43;15.83;;;20.80;99.90;;;;;;4862301;29;20768;-59
2022/08/18 01:02:59;;;;;;;18.37;16.80;;;20.80;99.90;;;;;;4862867;29;20784;-59
2022/08/18 01:05:41;;;;;;;18.57;16.97;;;20.80;99.90;;;;;;4861314;29;20590;-58
2022/08/18 01:08:14;;;;;;;18.10;16.50;;;20.80;99.90;;;;;;4862477;29;20229;-59
2022/08/18 01:10:45;;;;;;;19.80;17.90;;;20.80;99.90;;;;;;4862439;29;20710;-59
2022/08/18 01:13:13;;;;;;;20.23;18.37;;;20.70;99.90;;;;;;4863412;29;20222;-59
2022/08/18 01:15:41;;;;;;;18.43;16.77;;;20.70;99.90;;;;;;4862275;29;20271;-58
2022/08/18 01:23:53;;;;;;;17.53;15.97;;;20.70;99.90;;;;;;4881091;29;20609;-59
2022/08/18 01:26:23;;;;;;;19.30;17.63;;;20.70;99.90;;;;;;4881160;29;20317;-59
2022/08/18 01:28:51;;;;;;;18.33;16.63;;;20.70;99.90;;;;;;4880654;29;20648;-59
2022/08/18 01:31:36;;;;;;;19.73;17.77;;;20.70;99.90;;;;;;4880489;29;20251;-59
2022/08/18 01:34:06;;;;;;;18.73;17.10;;;20.70;99.90;;;;;;4880611;29;20240;-59
2022/08/18 01:36:37;;;;;;;20.60;18.57;;;20.60;99.90;;;;;;4880535;29;20257;-58
2022/08/18 01:39:08;;;;;;;21.10;19.10;;;20.60;99.90;;;;;;4880438;29;20234;-59
2022/08/18 01:41:36;;;;;;;20.27;18.37;;;20.60;99.90;;;;;;4880382;29;20245;-58
2022/08/18 01:44:07;;;;;;;16.53;15.13;;;20.60;99.90;;;;;;4880157;29;20245;-59
2022/08/18 01:46:35;;;;;;;16.67;15.17;;;20.60;99.90;;;;;;4880435;29;20732;-59
2022/08/18 01:49:05;;;;;;;15.53;13.93;;;20.50;99.90;;;;;;4878006;29;20714;-59
2022/08/18 01:51:36;;;;;;;15.80;14.33;;;20.50;99.90;;;;;;4875571;29;20556;-59
2022/08/18 01:54:11;;;;;;;16.70;15.10;;;20.50;99.90;;;;;;4880367;29;20232;-59
2022/08/18 01:56:41;;;;;;;16.57;15.17;;;20.40;99.90;;;;;;4879702;29;20243;-59
2022/08/18 01:59:13;;;;;;;16.20;14.77;;;20.40;99.90;;;;;;4872879;29;20229;-59
2022/08/18 02:01:46;;;;;;;15.60;14.17;;;20.40;99.90;;;;;;4891967;29;20589;-58
2022/08/18 02:04:22;;;;;;;15.23;13.73;;;20.40;99.90;;;;;;4898898;29;20570;-59
2022/08/18 02:07:06;;;;;;;14.87;13.50;;;20.40;99.90;;;;;;4898775;29;20297;-59
2022/08/18 02:09:36;;;;;;;16.13;14.63;;;20.40;99.90;;;;;;4898584;29;20316;-59
2022/08/18 02:12:06;;;;;;;15.00;13.77;;;20.30;99.90;;;;;;4898601;29;20256;-59
2022/08/18 02:14:34;;;;;;;14.93;13.73;;;20.40;99.90;;;;;;4882345;29;20685;-59
2022/08/18 02:17:06;;;;;;;15.87;14.40;;;20.30;99.90;;;;;;4879291;29;20724;-59
2022/08/18 02:19:36;;;;;;;13.67;12.43;;;20.30;99.90;;;;;;4879869;29;20324;-59
2022/08/18 02:22:05;;;;;;;14.00;12.80;;;20.30;99.90;;;;;;4879806;29;20637;-59
2022/08/18 02:24:35;;;;;;;14.50;13.20;;;20.20;99.90;;;;;;4873088;29;20239;-58
2022/08/18 02:27:04;;;;;;;14.17;12.90;;;20.20;99.90;;;;;;4877582;29;20273;-59
2022/08/18 02:29:32;;;;;;;14.00;12.70;;;20.20;99.90;;;;;;4879632;29;20273;-59
2022/08/18 02:32:00;;;;;;;14.70;13.40;;;20.20;99.90;;;;;;4879308;29;20253;-59
2022/08/18 02:34:28;;;;;;;14.67;13.47;;;20.20;99.90;;;;;;4879676;29;20233;-58
2022/08/18 02:36:58;;;;;;;14.80;13.57;;;20.10;99.90;;;;;;4879741;29;20272;-59
2022/08/18 02:39:26;;;;;;;15.07;13.77;;;20.10;99.90;;;;;;4879347;29;20320;-59
2022/08/18 02:41:56;;;;;;;15.70;14.20;;;20.10;99.90;;;;;;4879405;29;20245;-58
2022/08/18 02:44:24;;;;;;;16.37;14.90;;;20.10;99.90;;;;;;4879114;29;20248;-59
2022/08/18 02:46:53;;;;;;;15.53;14.23;;;20.10;99.90;;;;;;4879248;29;20232;-59
2022/08/18 02:49:22;;;;;;;17.20;15.70;;;20.00;99.90;;;;;;4872736;29;20286;-59
2022/08/18 02:51:50;;;;;;;18.53;16.93;;;20.10;99.90;;;;;;4879020;29;20237;-59
2022/08/18 02:54:19;;;;;;;17.80;16.20;;;20.10;99.90;;;;;;4874958;29;20233;-59
2022/08/18 02:56:49;;;;;;;18.23;16.53;;;20.00;99.90;;;;;;4874965;29;20241;-59
2022/08/18 02:59:23;;;;;;;17.00;15.50;;;20.00;99.90;;;;;;4879331;29;20241;-59
2022/08/18 03:01:52;;;;;;;18.20;16.40;;;19.90;99.90;;;;;;4877155;29;20316;-58
2022/08/18 03:04:26;;;;;;;17.77;16.17;;;19.90;99.90;;;;;;4878732;29;20744;-58
2022/08/18 03:06:59;;;;;;;15.97;14.40;;;19.90;99.90;;;;;;4895641;29;20242;-58
2022/08/18 03:09:28;;;;;;;15.57;14.07;;;19.90;99.90;;;;;;4897605;29;20264;-59
2022/08/18 03:11:56;;;;;;;14.40;13.00;;;19.80;99.90;;;;;;4897628;29;20231;-59
2022/08/18 03:14:26;;;;;;;12.03;11.03;;;19.80;99.90;;;;;;4882647;29;20322;-59
2022/08/18 03:16:54;;;;;;;13.83;12.63;;;19.80;99.90;;;;;;4878594;29;20333;-58
2022/08/18 03:19:24;;;;;;;17.23;15.57;;;19.90;99.90;;;;;;4872795;29;20226;-59
2022/08/18 03:21:54;;;;;;;16.70;15.10;;;19.90;99.90;;;;;;4878694;29;20241;-58
2022/08/18 03:24:27;;;;;;;16.60;14.90;;;19.90;99.90;;;;;;4878914;29;20659;-58
2022/08/18 03:26:56;;;;;;;16.40;14.63;;;19.80;99.90;;;;;;4877853;29;20232;-58
2022/08/18 03:29:26;;;;;;;15.10;13.70;;;19.80;99.90;;;;;;4877987;29;20231;-58
2022/08/18 03:32:00;;;;;;;15.97;14.47;;;19.70;99.90;;;;;;4878657;29;20739;-58
2022/08/18 03:34:29;;;;;;;15.23;13.93;;;19.70;99.90;;;;;;4878880;29;20298;-59
2022/08/18 03:36:58;;;;;;;15.67;14.27;;;19.70;99.90;;;;;;4878552;29;20719;-59
2022/08/18 03:39:27;;;;;;;15.87;14.57;;;19.70;99.90;;;;;;4878892;29;20661;-58
2022/08/18 03:41:56;;;;;;;16.17;14.60;;;19.60;99.90;;;;;;4878878;29;20725;-59
2022/08/18 03:44:32;;;;;;;16.90;15.10;;;19.60;99.90;;;;;;4878273;29;20585;-59
2022/08/18 03:47:02;;;;;;;16.80;15.17;;;19.60;99.90;;;;;;4878671;29;20592;-58
2022/08/18 03:49:32;;;;;;;15.73;14.40;;;19.60;99.90;;;;;;4877862;29;20694;-58
2022/08/18 03:52:01;;;;;;;16.07;14.47;;;19.60;99.90;;;;;;4861465;29;20245;-60
2022/08/18 03:54:30;;;;;;;15.03;13.70;;;19.50;99.90;;;;;;4868762;29;20231;-60
2022/08/18 03:56:59;;;;;;;13.10;11.90;;;19.50;99.90;;;;;;4877799;29;20221;-59
2022/08/18 03:59:30;;;;;;;12.80;11.70;;;19.50;99.90;;;;;;4880769;29;20736;-58
2022/08/18 04:02:03;;;;;;;10.97;10.07;;;19.50;99.90;;;;;;4878150;29;20276;-59
2022/08/18 04:04:32;;;;;;;9.57;8.77;;;19.50;99.90;;;;;;4878596;29;20244;-59
2022/08/18 04:07:06;;;;;;;10.57;9.53;;;19.50;99.90;;;;;;4893865;29;20233;-59
2022/08/18 04:09:37;;;;;;;11.57;10.60;;;19.50;99.90;;;;;;4897198;29;20236;-58
2022/08/18 04:12:10;;;;;;;15.20;13.77;;;19.50;99.90;;;;;;4897393;29;20600;-59
2022/08/18 04:14:46;;;;;;;13.47;12.27;;;19.50;99.90;;;;;;4885246;29;20225;-59
2022/08/18 04:17:19;;;;;;;13.97;12.60;;;19.40;99.90;;;;;;4878410;29;20257;-58
2022/08/18 04:19:47;;;;;;;13.10;11.80;;;19.40;99.90;;;;;;4870382;29;20234;-59
2022/08/18 04:22:15;;;;;;;12.40;11.30;;;19.40;99.90;;;;;;4877106;29;20236;-59
2022/08/18 04:24:45;;;;;;;11.83;10.73;;;19.40;99.90;;;;;;4878050;29;20237;-59
2022/08/18 04:27:13;;;;;;;13.17;12.00;;;19.40;99.90;;;;;;4878025;29;20789;-59
2022/08/18 04:29:41;;;;;;;14.80;13.30;;;19.40;99.90;;;;;;4877954;29;20248;-59
2022/08/18 04:32:09;;;;;;;16.37;14.87;;;19.40;99.90;;;;;;4878011;29;20714;-58
2022/08/18 04:34:39;;;;;;;17.67;16.07;;;19.40;99.90;;;;;;4877999;29;20273;-59
2022/08/18 04:37:08;;;;;;;18.13;16.53;;;19.50;99.90;;;;;;4878130;29;20720;-59
2022/08/18 04:39:36;;;;;;;19.30;17.40;;;19.40;99.90;;;;;;4879631;29;20237;-59
2022/08/18 04:42:04;;;;;;;17.63;15.93;;;19.50;99.90;;;;;;4881323;29;20256;-59
2022/08/18 04:44:33;;;;;;;17.00;15.23;;;19.50;99.90;;;;;;4882516;29;20360;-59
2022/08/18 04:47:02;;;;;;;17.03;15.50;;;19.40;99.90;;;;;;4880859;29;20328;-59
2022/08/18 04:49:30;;;;;;;17.57;16.00;;;19.50;99.90;;;;;;4881344;29;20229;-59
2022/08/18 04:55:07;;;;;;;15.93;14.53;;;19.60;99.90;;;;;;4881299;29;20226;-59
2022/08/18 04:57:35;;;;;;;17.50;15.90;;;19.60;99.90;;;;;;4880091;29;20230;-59
2022/08/18 05:00:06;;;;;;;16.90;15.40;;;19.60;99.90;;;;;;4880648;29;20716;-60
2022/08/18 05:02:34;;;;;;;15.60;13.97;;;19.60;99.90;;;;;;4880204;29;20664;-58
2022/08/18 05:05:03;;;;;;;15.10;13.70;;;19.60;99.90;;;;;;4880757;29;20238;-58
2022/08/18 05:07:33;;;;;;;14.37;13.00;;;19.70;99.90;;;;;;4880026;29;20233;-59
2022/08/18 05:10:01;;;;;;;15.93;14.43;;;19.70;99.90;;;;;;4878603;29;20320;-59
2022/08/18 05:12:29;;;;;;;18.77;17.07;;;19.80;99.90;;;;;;4880486;29;20239;-59
2022/08/18 05:14:57;;;;;;;19.27;17.53;;;19.80;99.90;;;;;;4880604;29;20317;-59
2022/08/18 05:17:27;;;;;;;20.70;18.87;;;19.80;99.90;;;;;;4880482;29;20580;-58
2022/08/18 05:19:58;;;;;;;21.77;19.87;;;19.90;99.90;;;;;;4875715;29;20319;-59
2022/08/18 05:22:27;;;;;;;20.50;18.53;;;19.90;99.90;;;;;;4881276;29;20233;-58
2022/08/18 05:25:00;;;;;;;21.17;19.30;;;19.90;99.90;;;;;;4878119;29;20245;-59
2022/08/18 05:27:32;;;;;;;22.13;20.07;;;20.00;99.90;;;;;;4880352;29;20288;-58
2022/08/18 05:30:01;;;;;;;21.17;19.37;;;20.00;99.90;;;;;;4879074;29;20288;-59
2022/08/18 05:32:31;;;;;;;22.37;20.10;;;20.00;99.90;;;;;;4879766;29;20380;-59
2022/08/18 05:35:22;;;;;;;20.30;18.33;;;19.90;99.90;;;;;;4880346;29;20229;-59
2022/08/18 05:38:08;;;;;;;22.53;20.33;;;20.00;99.90;;;;;;4878904;29;20317;-59
2022/08/18 05:40:38;;;;;;;22.07;20.07;;;20.00;99.90;;;;;;4876725;29;20233;-59
2022/08/18 05:43:08;;;;;;;21.83;19.73;;;20.00;99.90;;;;;;4871302;29;20708;-59
2022/08/18 05:45:36;;;;;;;24.00;21.70;;;20.00;99.90;;;;;;4867317;29;20222;-59
2022/08/18 05:48:05;;;;;;;21.47;19.47;;;20.00;99.90;;;;;;4866338;29;20241;-59
2022/08/18 05:50:37;;;;;;;23.83;21.47;;;20.00;99.90;;;;;;4872487;29;20723;-59
2022/08/18 05:53:08;;;;;;;24.70;22.27;;;20.00;99.90;;;;;;4870659;29;20238;-59
2022/08/18 05:58:38;;;;;;;25.17;22.43;;;20.00;99.90;;;;;;4868159;29;20242;-58
2022/08/18 06:01:11;;;;;;;24.13;21.67;;;20.00;99.90;;;;;;4866651;29;20276;-58
2022/08/18 06:03:47;;;;;;;26.73;24.03;;;20.10;99.90;;;;;;4868048;29;20328;-58
2022/08/18 06:06:19;;;;;;;24.70;22.27;;;20.10;99.90;;;;;;4868069;29;20229;-58
2022/08/18 06:08:57;;;;;;;26.53;23.87;;;20.10;99.90;;;;;;4848681;29;20532;-59
2022/08/18 06:11:27;;;;;;;27.50;24.03;;;20.10;99.90;;;;;;4867582;29;20241;-59
2022/08/18 06:13:55;;;;;;;26.00;23.43;;;20.20;99.90;;;;;;4868708;29;20317;-58
2022/08/18 06:16:42;;;;;;;28.43;25.20;;;20.20;99.90;;;;;;4866853;29;20236;-58
2022/08/18 06:19:28;;;;;;;26.97;24.10;;;20.20;99.90;;;;;;4862725;29;20262;-58
2022/08/18 06:22:06;;;;;;;27.43;24.60;;;20.20;99.90;;;;;;4865306;29;20236;-59
2022/08/18 06:24:41;;;;;;;27.93;25.00;;;20.20;99.90;;;;;;4867209;29;20238;-59
2022/08/18 06:27:18;;;;;;;30.77;27.07;;;20.20;99.90;;;;;;4867472;29;20752;-58
2022/08/18 06:30:04;;;;;;;29.07;25.93;;;20.20;99.90;;;;;;4867009;29;20237;-57
2022/08/18 06:32:46;;;;;;;30.27;27.17;;;20.10;99.90;;;;;;4866591;29;20357;-57
2022/08/18 06:35:23;;;;;;;33.00;27.90;;;20.10;99.90;;;;;;4865577;29;20229;-58
2022/08/18 06:40:48;;;;;;;31.90;28.17;;;20.20;99.90;;;;;;4865583;29;20676;-58
2022/08/18 06:43:18;;;;;;;32.57;28.20;;;20.20;99.90;;;;;;4866560;29;20240;-58
2022/08/18 06:45:50;;;;;;;31.33;27.40;;;20.20;99.90;;;;;;4868533;29;20613;-58
2022/08/18 06:48:27;;;;;;;35.33;30.77;;;20.30;99.90;;;;;;4869542;29;20701;-59
2022/08/18 06:50:59;;;;;;;32.03;28.60;;;20.30;99.90;;;;;;4867786;29;20233;-58
2022/08/18 06:53:59;;;;;;;34.53;29.97;;;20.30;99.90;;;;;;4866922;29;20233;-59
2022/08/18 06:56:35;;;;;;;36.07;29.73;;;20.40;99.90;;;;;;4869212;29;20304;-58
2022/08/18 06:59:21;;;;;;;36.47;30.87;;;20.40;99.90;;;;;;4870259;29;20383;-58
2022/08/18 07:01:53;;;;;;;33.07;29.57;;;20.40;99.90;;;;;;4849414;29;20244;-59
2022/08/18 07:05:00;;;;;;;35.23;29.63;;;20.40;99.90;;;;;;4869396;29;20241;-58
2022/08/18 07:07:34;;;;;;;38.23;31.53;;;20.50;99.90;;;;;;4864730;29;20634;-58
2022/08/18 07:10:33;;;;;;;34.97;29.73;;;20.50;99.90;;;;;;4878806;29;20727;-58
2022/08/18 07:13:15;;;;;;;33.80;29.90;;;20.60;99.90;;;;;;4877421;29;20267;-58
2022/08/18 07:15:46;;;;;;;38.97;32.20;;;20.60;99.90;;;;;;4878575;29;20712;-59
2022/08/18 07:18:24;;;;;;;35.30;30.93;;;20.60;99.90;;;;;;4876091;29;20260;-58
2022/08/18 07:20:55;;;;;;;33.60;29.77;;;20.60;99.90;;;;;;4869220;29;20652;-59
2022/08/18 07:23:30;;;;;;;36.83;28.60;;;20.60;99.90;;;;;;4869025;29;20229;-59
2022/08/18 07:26:10;;;;;;;35.23;28.30;;;20.60;99.90;;;;;;4864911;29;20248;-58
2022/08/18 07:28:44;;;;;;;32.53;28.17;;;20.60;99.90;;;;;;4864580;29;20289;-59
2022/08/18 07:31:24;;;;;;;36.03;28.97;;;20.70;99.90;;;;;;4867896;29;20343;-57
2022/08/18 07:33:57;;;;;;;33.43;27.87;;;20.80;99.90;;;;;;4867120;29;20728;-59
2022/08/18 07:36:30;;;;;;;31.67;27.00;;;20.80;99.90;;;;;;4862933;29;20246;-57
2022/08/18 07:39:04;;;;;;;38.30;29.90;;;20.90;99.90;;;;;;4867418;29;20792;-59
2022/08/18 07:41:38;;;;;;;35.30;27.70;;;21.00;99.90;;;;;;4867402;29;20623;-58
2022/08/18 07:44:17;;;;;;;31.97;27.90;;;21.10;99.90;;;;;;4867897;29;20265;-59
2022/08/18 07:46:56;;;;;;;36.53;28.33;;;21.20;99.90;;;;;;4863903;29;20260;-58
2022/08/18 07:49:27;;;;;;;32.10;27.57;;;21.30;99.90;;;;;;4864970;29;20571;-59
2022/08/18 07:52:04;;;;;;;35.50;29.20;;;21.30;99.90;;;;;;4866454;29;20788;-58
2022/08/18 07:54:50;;;;;;;34.43;29.40;;;21.30;99.90;;;;;;4868192;29;20604;-58
2022/08/18 07:57:32;;;;;;;34.90;27.23;;;21.30;99.90;;;;;;4867525;29;20237;-58
2022/08/18 08:00:16;;;;;;;30.57;27.10;;;21.40;99.90;;;;;;4865408;29;20245;-58
2022/08/18 08:03:20;;;;;;;30.77;27.33;;;21.60;99.90;;;;;;4868775;29;20255;-59
2022/08/18 08:05:54;;;;;;;37.57;27.63;;;21.70;99.90;;;;;;4865122;29;20241;-57
2022/08/18 08:08:29;;;;;;;34.27;26.17;;;21.80;99.90;;;;;;4866816;29;20235;-58
2022/08/18 08:11:21;;;;;;;32.93;25.83;;;21.80;99.90;;;;;;4868662;29;20285;-57
2022/08/18 08:14:00;;;;;;;32.33;27.73;;;22.00;99.90;;;;;;4865229;29;20242;-57
2022/08/18 08:16:37;;;;;;;29.90;25.90;;;22.10;99.90;;;;;;4870054;29;20260;-59
2022/08/18 08:19:24;;;;;;;30.03;26.93;;;22.10;99.90;;;;;;4875020;29;20241;-58
2022/08/18 08:22:18;;;;;;;31.93;26.17;;;22.20;99.90;;;;;;4873046;29;20237;-58
2022/08/18 08:24:59;;;;;;;31.53;26.33;;;22.30;99.90;;;;;;4872092;29;20849;-59
2022/08/18 08:27:40;;;;;;;30.73;26.27;;;22.40;99.90;;;;;;4867368;29;20245;-58
2022/08/18 08:30:12;;;;;;;31.17;27.73;;;22.40;99.90;;;;;;4866650;29;20617;-58
2022/08/18 08:32:49;;;;;;;29.83;26.63;;;22.50;99.90;;;;;;4869831;29;20252;-58
2022/08/18 08:35:28;;;;;;;32.90;26.40;;;22.50;99.90;;;;;;4869749;29;20729;-58
2022/08/18 08:38:22;;;;;;;31.73;26.60;;;22.50;99.90;;;;;;4869456;29;20230;-57
2022/08/18 08:41:13;;;;;;;29.83;25.70;;;22.70;99.90;;;;;;4871942;29;20234;-58
2022/08/18 08:43:48;;;;;;;28.30;25.00;;;22.80;99.90;;;;;;4869285;29;20265;-58
2022/08/18 08:46:21;;;;;;;27.37;24.63;;;23.00;99.90;;;;;;4870263;29;20332;-58
2022/08/18 08:48:56;;;;;;;27.27;24.40;;;23.20;99.90;;;;;;4869351;29;20245;-58
2022/08/18 08:51:34;;;;;;;29.33;26.23;;;23.20;99.90;;;;;;4870171;29;20240;-59
2022/08/18 08:54:09;;;;;;;27.97;25.03;;;23.20;99.90;;;;;;4867665;29;20246;-59
2022/08/18 08:56:42;;;;;;;29.57;26.37;;;23.30;99.90;;;;;;4866617;29;20324;-58
2022/08/18 08:59:12;;;;;;;29.80;25.53;;;23.60;99.90;;;;;;4870379;29;20230;-58
2022/08/18 09:01:47;;;;;;;27.90;24.40;;;23.90;99.90;;;;;;4869818;29;20254;-58
2022/08/18 09:04:28;;;;;;;27.20;24.30;;;24.00;99.90;;;;;;4871878;29;20233;-58
2022/08/18 09:07:11;;;;;;;29.07;25.43;;;24.00;99.90;;;;;;4866423;29;20246;-57
2022/08/18 09:09:57;;;;;;;27.13;24.23;;;23.90;99.90;;;;;;4870461;29;20325;-57
2022/08/18 09:12:41;;;;;;;29.23;26.03;;;23.80;99.90;;;;;;4868564;29;20222;-58
2022/08/18 09:15:25;;;;;;;27.43;24.47;;;23.90;99.90;;;;;;4868257;29;20246;-59
2022/08/18 09:18:18;;;;;;;30.87;27.43;;;24.30;99.90;;;;;;4867065;29;20261;-59
2022/08/18 09:20:56;;;;;;;28.70;24.23;;;24.70;99.90;;;;;;4869572;29;20252;-58
2022/08/18 09:23:30;;;;;;;27.87;24.93;;;25.20;99.90;;;;;;4867903;29;20595;-58
2022/08/18 09:26:19;;;;;;;26.63;23.83;;;25.80;99.90;;;;;;4869143;29;20395;-59
2022/08/18 09:28:57;;;;;;;25.77;23.20;;;26.40;99.90;;;;;;4869911;29;20249;-59
2022/08/18 09:31:26;;;;;;;27.20;24.37;;;26.80;99.90;;;;;;4868268;29;20342;-59
2022/08/18 09:34:21;;;;;;;25.23;22.63;;;26.90;99.90;;;;;;4867953;29;20345;-59
2022/08/18 09:37:03;;;;;;;24.23;21.67;;;27.20;99.90;;;;;;4866601;29;20233;-58
2022/08/18 09:42:35;;;;;;;24.00;21.73;;;26.70;99.90;;;;;;4869120;29;20337;-59
2022/08/18 09:45:41;;;;;;;26.47;23.87;;;26.30;99.90;;;;;;4868980;29;20233;-59
2022/08/18 09:48:29;;;;;;;25.27;22.80;;;25.90;99.90;;;;;;4868076;29;20240;-59
2022/08/18 09:51:33;;;;;;;21.87;19.60;;;26.20;99.90;;;;;;4868704;29;20262;-60
2022/08/18 09:54:20;;;;;;;21.03;18.87;;;26.80;99.90;;;;;;4867323;29;20787;-59
2022/08/18 09:57:06;;;;;;;17.87;16.13;;;27.40;99.90;;;;;;4866127;29;20244;-59
2022/08/18 10:00:14;;;;;;;20.93;18.60;;;27.30;99.90;;;;;;4867712;29;20249;-59
2022/08/18 10:03:10;;;;;;;20.90;18.80;;;27.10;99.90;;;;;;4866061;29;20238;-59
2022/08/18 10:05:40;;;;;;;20.43;18.40;;;27.60;99.90;;;;;;4865307;29;20901;-60
2022/08/18 10:08:36;;;;;;;19.20;17.40;;;28.30;99.90;;;;;;4865765;29;20273;-60
2022/08/18 10:11:28;;;;;;;16.67;15.17;;;28.90;99.90;;;;;;4868778;29;20245;-60
2022/08/18 10:14:12;;;;;;;16.63;14.90;;;29.70;99.90;;;;;;4868805;29;20232;-58
2022/08/18 10:16:54;;;;;;;16.33;14.73;;;30.00;99.90;;;;;;4863679;29;20245;-60
2022/08/18 10:19:52;;;;;;;15.37;13.80;;;30.40;99.90;;;;;;4867759;29;20744;-59
2022/08/18 10:22:39;;;;;;;14.27;12.57;;;30.80;99.90;;;;;;4868390;29;20612;-59
2022/08/18 10:25:10;;;;;;;13.70;12.33;;;31.00;99.90;;;;;;4867263;29;20790;-60
2022/08/18 10:27:54;;;;;;;14.77;13.30;;;31.30;99.90;;;;;;4863070;29;20242;-59
2022/08/18 10:31:01;;;;;;;13.13;11.83;;;31.00;99.90;;;;;;4867275;29;20830;-59
2022/08/18 10:34:01;;;;;;;13.00;11.70;;;30.40;99.90;;;;;;4868551;29;20225;-59
2022/08/18 10:36:51;;;;;;;14.60;12.53;;;30.20;99.90;;;;;;4863666;29;20801;-59
2022/08/18 10:39:22;;;;;;;12.90;11.70;;;30.40;99.90;;;;;;4867238;29;20736;-60
2022/08/18 10:42:06;;;;;;;12.37;11.17;;;30.30;99.90;;;;;;4868511;29;20961;-59
2022/08/18 10:44:43;;;;;;;15.67;14.10;;;29.90;99.90;;;;;;4868072;29;20238;-59
2022/08/18 10:47:23;;;;;;;14.57;13.23;;;30.20;99.90;;;;;;4864811;29;20253;-59
2022/08/18 10:49:53;;;;;;;11.30;10.10;;;30.30;99.90;;;;;;4866570;29;20235;-59
2022/08/18 10:52:57;;;;;;;13.60;12.20;;;30.60;99.90;;;;;;4867532;29;20229;-60
2022/08/18 10:55:53;;;;;;;16.03;13.50;;;30.90;99.90;;;;;;4864901;29;20226;-59
2022/08/18 10:58:54;;;;;;;13.53;12.13;;;31.10;99.90;;;;;;4865035;29;20788;-59
2022/08/18 11:01:44;;;;;;;15.57;14.00;;;31.00;99.90;;;;;;4866105;29;20269;-59
2022/08/18 11:04:26;;;;;;;11.93;10.73;;;30.60;99.90;;;;;;4863727;29;20727;-60
2022/08/18 11:07:11;;;;;;;11.13;10.13;;;30.70;99.90;;;;;;4868069;29;20770;-59
2022/08/18 11:09:41;;;;;;;13.63;9.87;;;31.10;99.90;;;;;;4866193;29;20241;-60
2022/08/18 11:12:56;;;;;;;11.83;9.90;;;31.70;99.90;;;;;;4866915;29;20241;-59
2022/08/18 11:15:32;;;;;;;10.87;9.60;;;31.30;99.90;;;;;;4866089;29;20239;-58
2022/08/18 11:18:27;;;;;;;10.33;9.33;;;30.70;99.90;;;;;;4863694;29;20293;-60
2022/08/18 11:21:39;;;;;;;10.20;9.20;;;30.10;99.90;;;;;;4865313;29;20846;-60
2022/08/18 11:24:17;;;;;;;10.37;9.37;;;29.80;99.90;;;;;;4834655;29;20245;-59
2022/08/18 11:26:48;;;;;;;11.50;10.40;;;29.50;99.90;;;;;;4863033;29;20267;-59
2022/08/18 11:29:28;;;;;;;11.93;9.70;;;29.30;99.90;;;;;;4866724;29;20234;-59
2022/08/18 11:32:05;;;;;;;10.13;9.27;;;29.30;99.90;;;;;;4865582;29;20269;-59
2022/08/18 11:34:41;;;;;;;10.63;8.97;;;29.90;99.90;;;;;;4871839;29;20757;-58
2022/08/18 11:37:25;;;;;;;11.80;10.03;;;30.50;99.90;;;;;;4866286;29;20260;-59
2022/08/18 11:39:58;;;;;;;11.93;10.73;;;30.40;99.90;;;;;;4870467;29;20280;-59
2022/08/18 11:42:30;;;;;;;11.67;10.47;;;30.00;99.90;;;;;;4866219;29;20231;-59
2022/08/18 11:45:07;;;;;;;12.07;10.10;;;29.40;99.90;;;;;;4863337;29;20822;-58
2022/08/18 11:47:38;;;;;;;11.27;10.07;;;29.20;99.90;;;;;;4867348;29;20658;-59
2022/08/18 11:50:10;;;;;;;9.37;8.57;;;29.00;99.90;;;;;;4868413;29;20237;-59
2022/08/18 11:52:50;;;;;;;10.13;9.13;;;28.90;99.90;;;;;;4870701;29;20238;-60
2022/08/18 11:55:32;;;;;;;12.57;11.40;;;28.90;99.90;;;;;;4869967;29;20235;-59
2022/08/18 11:58:02;;;;;;;14.37;12.97;;;28.60;99.90;;;;;;4867691;29;20678;-59
2022/08/18 12:00:54;;;;;;;13.43;12.00;;;28.20;99.90;;;;;;4868754;29;20249;-59
2022/08/18 12:03:36;;;;;;;12.13;10.40;;;27.80;99.90;;;;;;4868740;29;20248;-59
2022/08/18 12:06:19;;;;;;;13.17;11.73;;;27.70;99.90;;;;;;4871035;29;20245;-59
2022/08/18 12:08:55;;;;;;;11.67;10.63;;;27.50;99.90;;;;;;4866742;29;20244;-60
2022/08/18 12:11:30;;;;;;;12.97;11.60;;;27.50;99.90;;;;;;4867878;29;20321;-59
2022/08/18 12:14:04;;;;;;;13.30;11.90;;;27.70;99.90;;;;;;4869966;29;20246;-59
2022/08/18 12:16:53;;;;;;;11.67;10.37;;;27.80;99.90;;;;;;4869133;29;20240;-60
2022/08/18 12:19:22;;;;;;;11.87;10.80;;;28.20;99.90;;;;;;4871527;29;20318;-60
2022/08/18 12:21:55;;;;;;;12.43;11.27;;;28.30;99.90;;;;;;4867727;29;20273;-59
2022/08/18 12:24:26;;;;;;;9.70;8.73;;;28.40;99.90;;;;;;4868450;29;20245;-59
2022/08/18 12:27:05;;;;;;;11.23;10.23;;;28.40;99.90;;;;;;4867244;29;21637;-59
2022/08/18 12:29:49;;;;;;;11.43;10.33;;;28.50;99.90;;;;;;4870332;29;20347;-58
2022/08/18 12:32:18;;;;;;;10.33;9.43;;;28.30;99.90;;;;;;4873751;29;20246;-59
2022/08/18 12:35:10;;;;;;;10.73;9.73;;;28.30;99.90;;;;;;4870511;29;20248;-60
2022/08/18 12:37:41;;;;;;;12.33;10.53;;;28.20;99.90;;;;;;4871652;29;20348;-58
2022/08/18 12:40:28;;;;;;;12.43;11.33;;;28.10;99.90;;;;;;4869530;29;20253;-60
2022/08/18 12:42:58;;;;;;;12.93;11.73;;;28.10;99.90;;;;;;4871560;29;20257;-59
2022/08/18 12:45:29;;;;;;;13.63;12.23;;;28.20;99.90;;;;;;4873929;29;20218;-59
2022/08/18 12:48:01;;;;;;;14.27;12.70;;;28.30;99.90;;;;;;4865627;29;20245;-60
2022/08/18 12:50:49;;;;;;;16.03;14.60;;;28.00;99.90;;;;;;4869449;29;20245;-59
2022/08/18 12:53:27;;;;;;;12.20;11.10;;;27.80;99.90;;;;;;4869230;29;20241;-59
2022/08/18 12:56:21;;;;;;;12.87;11.80;;;27.90;99.90;;;;;;4866008;29;20237;-59
2022/08/18 12:58:51;;;;;;;12.77;11.67;;;28.30;99.90;;;;;;4868407;29;20324;-59
2022/08/18 13:01:20;;;;;;;14.07;12.97;;;28.60;99.90;;;;;;4866786;29;20253;-60
2022/08/18 13:04:08;;;;;;;13.13;11.83;;;28.70;99.90;;;;;;4868424;29;20715;-60
2022/08/18 13:06:46;;;;;;;15.33;13.83;;;28.60;99.90;;;;;;4865527;29;20594;-59
2022/08/18 13:09:30;;;;;;;13.97;12.73;;;28.40;99.90;;;;;;4869041;29;20273;-60
2022/08/18 13:12:19;;;;;;;14.83;13.43;;;28.10;99.90;;;;;;4868675;29;20829;-58
2022/08/18 13:14:49;;;;;;;12.10;11.00;;;27.80;99.90;;;;;;4867990;29;20793;-60
2022/08/18 13:17:19;;;;;;;13.87;12.57;;;27.60;99.90;;;;;;4863005;29;20269;-59
2022/08/18 13:20:03;;;;;;;13.43;12.23;;;27.60;99.90;;;;;;4871174;29;20257;-59
2022/08/18 13:22:31;;;;;;;13.60;12.27;;;27.40;99.90;;;;;;4871577;29;20322;-60
2022/08/18 13:25:01;;;;;;;12.60;11.50;;;27.20;99.90;;;;;;4869220;29;20704;-59
2022/08/18 13:27:32;;;;;;;15.00;13.40;;;27.20;99.90;;;;;;4867770;29;21420;-60
2022/08/18 13:30:10;;;;;;;12.97;11.67;;;27.20;99.90;;;;;;4867224;29;20710;-60
2022/08/18 13:32:58;;;;;;;12.13;11.07;;;27.40;99.90;;;;;;4871961;29;20253;-59